Time;durP1;ratioP1;P1;durP2;ratioP2;P2;SDS_P1;SDS_P2;PMS_P1;PMS_P2;Temp;Humidity;BMP_temperature;BMP_pressure;BME280_temperature;BME280_humidity;BME280_pressure;Samples;Min_cycle;Max_cycle;Signal;HPM_P1;HPM_P2
2021/07/24 00:12:29;;;;;;;10.77;8.52;;;;;;;20.22;55.91;96241.41;6243507;23;20024;-79
2021/07/24 01:08:04;;;;;;;12.48;8.65;;;;;;;20.11;56.13;96151.28;6244187;23;20031;-79
2021/07/24 01:42:01;;;;;;;15.27;9.63;;;;;;;20.29;55.58;96136.88;6213729;23;20051;-80
2021/07/24 03:02:52;;;;;;;12.50;9.05;;;;;;;19.62;57.59;96183.13;6183714;23;20031;-79
2021/07/24 03:42:19;;;;;;;12.63;8.43;;;;;;;19.72;57.82;96148.84;6204902;23;20008;-79
2021/07/24 03:53:36;;;;;;;11.45;8.60;;;;;;;19.81;57.36;96145.72;6205823;23;20028;-77
2021/07/24 04:56:48;;;;;;;12.15;9.10;;;;;;;20.14;56.78;96156.09;6209563;23;20062;-80
2021/07/24 04:59:15;;;;;;;10.82;9.50;;;;;;;20.22;56.67;96164.59;6217663;23;20460;-80
2021/07/24 05:01:43;;;;;;;13.02;8.90;;;;;;;20.26;56.20;96169.13;6218078;23;20024;-79
2021/07/24 05:04:12;;;;;;;13.30;8.25;;;;;;;20.28;56.40;96171.53;6216531;23;20104;-79
2021/07/24 05:06:40;;;;;;;11.48;8.93;;;;;;;20.29;56.06;96170.47;6228584;23;20027;-80
2021/07/24 05:09:07;;;;;;;11.18;8.25;;;;;;;20.33;55.89;96166.28;6230832;23;20023;-80
2021/07/24 05:11:35;;;;;;;13.05;9.15;;;;;;;20.35;56.02;96172.13;6234111;23;20472;-80
2021/07/24 05:14:04;;;;;;;10.55;8.60;;;;;;;20.38;55.75;96163.69;6225354;23;20021;-80
2021/07/24 05:16:31;;;;;;;12.52;8.80;;;;;;;20.41;55.83;96149.91;6218927;23;20027;-79
2021/07/24 05:19:00;;;;;;;13.82;8.95;;;;;;;20.46;55.90;96141.19;6216215;23;20013;-80
2021/07/24 05:21:28;;;;;;;11.45;8.57;;;;;;;20.49;55.83;96144.13;6224824;23;20103;-79
2021/07/24 05:23:56;;;;;;;11.13;8.93;;;;;;;20.53;55.97;96141.75;6230632;23;20072;-79
2021/07/24 05:45:44;;;;;;;13.10;9.10;;;;;;;20.60;56.12;96190.06;6157537;23;20669;-79
2021/07/24 05:53:57;;;;;;;13.82;8.85;;;;;;;20.52;56.80;96188.66;6190998;23;20247;-88
2021/07/24 05:56:30;;;;;;;11.95;9.07;;;;;;;20.57;56.98;96188.75;6186826;23;20024;-76
2021/07/24 06:09:51;;;;;;;11.13;8.48;;;;;;;20.72;57.46;96206.56;6238369;22;20015;-80
2021/07/24 06:12:32;;;;;;;11.82;9.23;;;;;;;20.75;57.18;96210.56;6274107;22;20023;-81
2021/07/24 06:15:04;;;;;;;11.13;8.50;;;;;;;20.77;57.23;96217.22;6271775;23;20080;-79
2021/07/24 06:17:35;;;;;;;10.75;8.07;;;;;;;20.78;57.38;96228.63;6246066;23;20042;-79
2021/07/24 06:20:06;;;;;;;13.05;8.68;;;;;;;20.81;57.24;96230.75;6272273;22;20020;-82
2021/07/24 06:31:15;;;;;;;10.65;8.80;;;;;;;20.89;56.78;96266.59;6221026;23;20091;-82
2021/07/24 06:33:55;;;;;;;9.82;8.48;;;;;;;20.90;56.68;96262.88;6243219;23;20001;-79
2021/07/24 06:42:11;;;;;;;25.13;17.60;;;;;;;20.97;56.66;96256.31;6243164;22;20043;-86
2021/07/24 07:11:42;;;;;;;12.25;9.38;;;;;;;21.59;57.09;96275.19;6235495;23;20004;-80
2021/07/24 07:14:15;;;;;;;13.60;10.38;;;;;;;21.65;57.00;96263.56;6242534;23;20031;-80
2021/07/24 07:16:57;;;;;;;13.48;9.90;;;;;;;21.71;56.77;96256.38;6243081;23;20024;-82
2021/07/24 07:25:15;;;;;;;14.23;8.65;;;;;;;21.94;57.09;96242.66;6226569;23;20025;-79
2021/07/24 07:39:16;;;;;;;14.38;9.70;;;;;;;22.25;55.88;96252.56;6209929;23;20056;-80
2021/07/24 07:53:04;;;;;;;13.57;10.13;;;;;;;22.65;56.48;96275.66;6206714;23;20040;-80
2021/07/24 07:58:53;;;;;;;12.02;9.43;;;;;;;22.88;56.89;96273.53;6226353;23;20024;-80
2021/07/24 08:04:09;;;;;;;13.90;10.43;;;;;;;23.03;56.02;96274.34;6216689;23;20403;-68
2021/07/24 08:06:37;;;;;;;12.75;9.68;;;;;;;23.09;55.92;96287.63;6216729;23;20356;-68
2021/07/24 08:09:06;;;;;;;13.57;9.02;;;;;;;23.14;55.52;96283.09;6216061;23;20052;-69
2021/07/24 08:11:33;;;;;;;12.48;9.30;;;;;;;23.18;54.70;96280.69;6216108;23;20020;-69
2021/07/24 08:14:08;;;;;;;13.02;9.68;;;;;;;23.24;54.28;96284.91;6228412;23;20044;-82
2021/07/24 08:16:54;;;;;;;11.77;9.30;;;;;;;23.30;54.71;96275.06;6227894;23;20013;-81
2021/07/24 08:19:26;;;;;;;11.40;8.63;;;;;;;23.35;54.56;96269.72;6238303;23;20020;-79
2021/07/24 08:21:54;;;;;;;12.63;9.80;;;;;;;23.40;54.00;96265.19;6242403;23;20016;-80
2021/07/24 08:24:21;;;;;;;12.13;9.23;;;;;;;23.44;54.01;96265.44;6239381;23;20073;-80
2021/07/24 08:26:49;;;;;;;13.90;9.10;;;;;;;23.48;53.82;96273.66;6237764;23;20017;-81
2021/07/24 08:29:17;;;;;;;14.18;10.13;;;;;;;23.48;53.83;96289.66;6237433;23;20183;-80
2021/07/24 08:31:45;;;;;;;13.40;9.95;;;;;;;23.51;53.88;96291.78;6236360;23;20016;-80
2021/07/24 08:34:12;;;;;;;12.48;8.98;;;;;;;23.52;53.97;96288.03;6242137;23;20047;-80
2021/07/24 08:36:41;;;;;;;15.43;9.88;;;;;;;23.56;53.98;96294.41;6243947;23;20015;-80
2021/07/24 08:39:09;;;;;;;15.90;9.50;;;;;;;23.58;54.05;96306.38;6243591;23;20064;-80
2021/07/24 08:41:39;;;;;;;20.38;15.75;;;;;;;23.62;54.94;96314.63;6239127;23;20028;-81
2021/07/24 08:44:07;;;;;;;28.88;19.77;;;;;;;23.64;54.58;96317.81;6237662;23;20060;-81
2021/07/24 08:46:35;;;;;;;12.38;10.10;;;;;;;23.67;54.67;96311.94;6237396;23;20013;-81
2021/07/24 08:49:02;;;;;;;13.13;9.80;;;;;;;23.71;54.11;96307.66;6222037;23;20457;-74
2021/07/24 08:51:32;;;;;;;13.05;9.50;;;;;;;23.72;54.38;96314.56;6216135;23;20025;-75
2021/07/24 08:54:01;;;;;;;12.40;9.88;;;;;;;23.73;54.66;96316.19;6218535;23;20076;-81
2021/07/24 08:56:33;;;;;;;10.70;9.07;;;;;;;23.75;55.55;96302.59;6222648;23;20103;-78
2021/07/24 08:59:03;;;;;;;15.55;9.95;;;;;;;23.77;55.43;96289.84;6217010;23;20020;-74
2021/07/24 09:01:34;;;;;;;15.93;11.07;;;;;;;23.79;55.94;96287.69;6215805;23;20024;-73
2021/07/24 09:04:05;;;;;;;15.33;9.93;;;;;;;23.80;56.20;96300.72;6215302;23;20463;-74
2021/07/24 09:06:33;;;;;;;15.68;10.68;;;;;;;23.83;56.22;96300.19;6216633;23;20230;-78
2021/07/24 09:09:02;;;;;;;14.98;9.95;;;;;;;23.87;56.29;96305.75;6216523;23;20079;-77
2021/07/24 09:11:29;;;;;;;12.55;9.48;;;;;;;23.90;56.04;96301.75;6217266;23;20532;-77
2021/07/24 09:13:57;;;;;;;13.05;9.40;;;;;;;23.92;55.64;96294.28;6216585;23;20031;-77
2021/07/24 09:16:26;;;;;;;11.77;8.85;;;;;;;23.94;54.65;96284.16;6217343;23;20028;-78
2021/07/24 09:18:58;;;;;;;13.23;9.70;;;;;;;23.96;54.55;96258.03;6217056;23;20431;-78
2021/07/24 09:21:26;;;;;;;10.57;8.65;;;;;;;23.99;53.94;96228.19;6217225;23;20048;-78
2021/07/24 09:23:54;;;;;;;12.45;9.43;;;;;;;24.00;53.27;96213.78;6217342;23;20487;-78
2021/07/24 09:26:31;;;;;;;11.73;8.82;;;;;;;24.04;53.57;96218.28;6217571;23;20029;-73
2021/07/24 09:29:14;;;;;;;11.88;8.73;;;;;;;24.08;52.96;96218.53;6216925;23;20024;-73
2021/07/24 09:31:42;;;;;;;16.75;9.02;;;;;;;24.08;51.31;96209.75;6216463;23;20024;-74
2021/07/24 09:34:11;;;;;;;10.57;9.02;;;;;;;24.11;51.25;96211.84;6216651;23;20017;-74
2021/07/24 09:36:39;;;;;;;10.43;7.72;;;;;;;24.16;51.94;96211.78;6217081;23;20020;-74
2021/07/24 09:39:11;;;;;;;12.25;8.98;;;;;;;24.20;51.36;96208.28;6216677;23;20031;-74
2021/07/24 09:41:41;;;;;;;11.77;9.07;;;;;;;24.24;51.25;96201.34;6216572;23;20075;-74
2021/07/24 09:44:09;;;;;;;11.10;8.35;;;;;;;24.24;50.89;96197.88;6216085;23;20028;-73
2021/07/24 09:46:37;;;;;;;10.43;9.13;;;;;;;24.21;51.07;96182.47;6216546;23;20031;-73
2021/07/24 09:49:13;;;;;;;12.90;9.82;;;;;;;24.19;51.29;96174.75;6217455;23;20020;-74
2021/07/24 09:51:45;;;;;;;11.50;8.98;;;;;;;24.19;51.02;96174.75;6218962;23;20396;-79
2021/07/24 09:54:26;;;;;;;14.35;9.68;;;;;;;24.20;51.05;96173.66;6226426;23;20024;-80
2021/07/24 09:56:56;;;;;;;34.47;15.98;;;;;;;24.22;51.67;96174.16;6238437;23;20119;-81
2021/07/24 09:59:25;;;;;;;18.17;10.80;;;;;;;24.26;52.07;96175.19;6239226;23;20024;-81
2021/07/24 10:01:54;;;;;;;13.55;9.98;;;;;;;24.33;51.69;96180.22;6238681;23;20055;-81
2021/07/24 10:04:27;;;;;;;14.85;10.00;;;;;;;24.44;52.25;96180.91;6238779;23;20025;-81
2021/07/24 10:06:56;;;;;;;15.50;9.85;;;;;;;24.52;51.57;96167.03;6239375;23;20024;-81
2021/07/24 10:09:28;;;;;;;11.68;9.65;;;;;;;24.56;51.36;96168.03;6234143;23;20049;-82
2021/07/24 10:11:58;;;;;;;17.42;10.13;;;;;;;24.57;51.51;96174.16;6242071;23;20016;-81
2021/07/24 10:14:27;;;;;;;12.95;8.85;;;;;;;24.58;52.21;96184.56;6241867;23;20020;-81
2021/07/24 10:16:57;;;;;;;12.73;10.00;;;;;;;24.58;51.56;96191.78;6242006;23;20078;-81
2021/07/24 10:19:27;;;;;;;20.70;10.55;;;;;;;24.57;52.15;96196.28;6241795;23;20021;-81
2021/07/24 10:21:57;;;;;;;18.33;10.65;;;;;;;24.54;52.23;96191.53;6241695;23;20028;-81
2021/07/24 10:24:26;;;;;;;20.50;10.82;;;;;;;24.53;52.17;96178.47;6241188;23;20020;-81
2021/07/24 10:26:59;;;;;;;15.15;10.75;;;;;;;24.54;52.86;96186.19;6228062;23;20024;-75
2021/07/24 10:29:31;;;;;;;17.30;10.00;;;;;;;24.54;52.84;96180.88;6215950;23;20023;-80
2021/07/24 10:32:03;;;;;;;13.10;10.13;;;;;;;24.59;52.79;96178.13;6215986;23;20016;-75
2021/07/24 10:34:32;;;;;;;14.73;10.27;;;;;;;24.64;53.33;96180.78;6215766;23;20024;-75
2021/07/24 10:37:01;;;;;;;16.20;10.80;;;;;;;24.72;53.00;96181.22;6215548;23;20025;-75
2021/07/24 10:39:28;;;;;;;14.95;9.38;;;;;;;24.80;53.52;96184.06;6215838;23;20028;-75
2021/07/24 10:42:10;;;;;;;15.60;9.20;;;;;;;24.90;53.21;96177.81;6216094;23;20017;-75
2021/07/24 10:44:40;;;;;;;13.18;9.85;;;;;;;24.97;53.35;96180.16;6216311;23;20376;-75
2021/07/24 10:47:11;;;;;;;15.85;9.65;;;;;;;25.00;53.01;96171.59;6216506;23;20048;-75
2021/07/24 10:49:57;;;;;;;20.10;11.50;;;;;;;25.00;52.54;96174.25;6215985;23;20479;-75
2021/07/24 10:52:25;;;;;;;15.20;10.20;;;;;;;24.98;53.30;96163.88;6215273;23;20024;-74
2021/07/24 10:55:13;;;;;;;14.80;10.73;;;;;;;25.00;53.34;96166.25;6215390;23;20020;-75
2021/07/24 10:58:06;;;;;;;19.30;11.10;;;;;;;25.03;52.67;96165.69;6215919;23;20031;-74
2021/07/24 11:00:50;;;;;;;15.77;10.65;;;;;;;25.01;52.63;96165.16;6216125;23;20087;-76
2021/07/24 11:03:39;;;;;;;11.57;10.10;;;;;;;24.97;52.72;96159.63;6215679;23;20031;-74
2021/07/24 11:06:28;;;;;;;12.45;9.43;;;;;;;24.96;52.56;96167.91;6215942;23;20091;-75
2021/07/24 11:09:14;;;;;;;12.32;9.95;;;;;;;24.93;51.69;96166.59;6215530;23;20017;-76
2021/07/24 11:11:44;;;;;;;19.15;10.13;;;;;;;24.93;52.04;96150.59;6214687;23;20020;-75
2021/07/24 11:14:57;;;;;;;15.90;9.60;;;;;;;24.94;51.90;96144.16;6214818;23;20021;-75
2021/07/24 11:17:27;;;;;;;13.57;9.27;;;;;;;24.96;52.30;96143.88;6215066;23;20021;-75
2021/07/24 11:20:34;;;;;;;14.95;9.85;;;;;;;24.97;51.15;96145.47;6214684;23;20021;-75
2021/07/24 11:23:08;;;;;;;13.45;9.18;;;;;;;24.97;51.22;96154.28;6214731;23;20036;-74
2021/07/24 11:25:40;;;;;;;11.93;9.93;;;;;;;24.99;51.70;96149.47;6215110;23;20414;-75
2021/07/24 11:28:10;;;;;;;11.00;8.65;;;;;;;25.00;51.02;96139.56;6214542;23;20032;-77
2021/07/24 11:30:38;;;;;;;11.55;9.18;;;;;;;25.01;51.52;96141.94;6221313;23;20088;-75
2021/07/24 11:33:11;;;;;;;11.48;9.43;;;;;;;25.04;51.89;96135.25;6220628;23;20388;-75
2021/07/24 11:35:40;;;;;;;13.43;9.10;;;;;;;25.06;51.82;96141.91;6220869;23;20021;-77
2021/07/24 11:38:22;;;;;;;10.18;8.73;;;;;;;25.12;50.81;96144.50;6223047;23;20028;-80
2021/07/24 11:41:05;;;;;;;10.23;8.30;;;;;;;25.19;51.25;96152.94;6215581;23;20017;-80
2021/07/24 11:43:32;;;;;;;19.88;8.85;;;;;;;25.26;50.86;96148.88;6220497;23;20027;-81
2021/07/24 11:46:03;;;;;;;15.05;9.20;;;;;;;25.40;51.81;96161.53;6219513;23;20032;-80
2021/07/24 11:48:32;;;;;;;14.68;10.00;;;;;;;25.51;52.57;96162.19;6232211;23;20031;-80
2021/07/24 11:51:05;;;;;;;13.10;9.77;;;;;;;25.58;53.06;96165.28;6230109;23;20051;-80
2021/07/24 11:53:33;;;;;;;14.20;10.32;;;;;;;25.61;52.59;96160.16;6216466;23;20361;-81
2021/07/24 11:56:02;;;;;;;14.55;10.23;;;;;;;25.63;52.59;96162.56;6216557;23;20457;-80
2021/07/24 11:58:30;;;;;;;14.35;9.68;;;;;;;25.63;51.75;96170.56;6217146;23;20020;-80
2021/07/24 12:01:00;;;;;;;9.75;8.75;;;;;;;25.67;51.82;96171.56;6217333;23;20032;-80
2021/07/24 12:03:30;;;;;;;12.60;10.30;;;;;;;25.71;52.87;96177.91;6218306;23;20036;-80
2021/07/24 12:06:10;;;;;;;13.77;9.18;;;;;;;25.80;53.33;96183.41;6217818;23;20076;-80
2021/07/24 12:08:39;;;;;;;12.45;9.82;;;;;;;25.87;53.43;96181.97;6217035;23;20021;-80
2021/07/24 12:11:12;;;;;;;13.15;10.88;;;;;;;25.93;53.88;96182.69;6216544;23;20027;-80
2021/07/24 12:13:40;;;;;;;12.02;9.85;;;;;;;25.96;53.69;96170.66;6215891;23;20021;-80
2021/07/24 12:16:08;;;;;;;12.85;9.63;;;;;;;26.00;54.22;96164.44;6217486;23;20028;-80
2021/07/24 12:18:39;;;;;;;11.27;9.40;;;;;;;26.03;54.68;96165.72;6216909;23;20025;-80
2021/07/24 12:21:13;;;;;;;12.40;10.27;;;;;;;26.01;55.49;96174.03;6224399;23;20021;-80
2021/07/24 12:23:53;;;;;;;20.20;11.45;;;;;;;25.97;55.39;96180.25;6235093;23;20021;-79
2021/07/24 12:26:21;;;;;;;13.80;11.00;;;;;;;25.87;55.91;96173.94;6235544;23;20046;-78
2021/07/24 12:28:49;;;;;;;13.32;11.07;;;;;;;25.81;55.65;96167.09;6223164;23;20031;-80
2021/07/24 12:31:28;;;;;;;12.90;9.85;;;;;;;25.73;56.16;96173.06;6219573;23;20016;-80
2021/07/24 12:33:57;;;;;;;13.23;10.75;;;;;;;25.67;56.01;96190.25;6218422;23;20061;-80
2021/07/24 12:36:28;;;;;;;13.23;10.75;;;;;;;25.60;56.56;96185.25;6216472;23;20468;-80
2021/07/24 12:38:58;;;;;;;12.20;10.82;;;;;;;25.48;56.84;96185.69;6216000;23;20023;-80
2021/07/24 12:41:29;;;;;;;12.98;11.60;;;;;;;25.40;56.83;96180.22;6215992;23;20368;-80
2021/07/24 12:44:04;;;;;;;13.57;11.15;;;;;;;25.31;56.48;96163.25;6216279;23;20021;-80
2021/07/24 12:46:33;;;;;;;16.15;11.52;;;;;;;25.21;56.32;96162.31;6217622;23;20025;-80
2021/07/24 12:49:00;;;;;;;13.15;10.82;;;;;;;25.15;56.26;96162.63;6217863;23;20095;-80
2021/07/24 12:51:34;;;;;;;12.23;10.27;;;;;;;25.08;56.12;96162.97;6217417;23;20021;-80
2021/07/24 12:54:10;;;;;;;13.98;10.32;;;;;;;25.01;56.17;96152.59;6217640;23;20021;-80
2021/07/24 12:56:39;;;;;;;13.82;9.65;;;;;;;24.96;55.93;96149.22;6217863;23;20044;-80
2021/07/24 12:59:07;;;;;;;19.42;10.10;;;;;;;24.92;56.16;96143.66;6217668;23;20020;-80
2021/07/24 13:01:34;;;;;;;12.30;10.25;;;;;;;24.90;56.76;96140.47;6218089;23;20027;-80
2021/07/24 13:04:03;;;;;;;12.63;10.13;;;;;;;24.84;56.22;96153.09;6217464;23;20395;-80
2021/07/24 13:06:32;;;;;;;17.08;10.88;;;;;;;24.77;56.97;96154.50;6224124;23;20491;-81
2021/07/24 13:09:04;;;;;;;11.48;10.07;;;;;;;24.71;57.00;96163.63;6220690;23;20107;-80
2021/07/24 13:11:31;;;;;;;13.55;9.50;;;;;;;24.66;57.07;96161.81;6222102;23;20023;-80
2021/07/24 13:14:00;;;;;;;11.18;9.70;;;;;;;24.65;57.07;96161.00;6223936;23;20083;-81
2021/07/24 13:16:32;;;;;;;12.60;9.23;;;;;;;24.65;56.93;96161.00;6219198;23;20107;-80
2021/07/24 13:19:00;;;;;;;14.27;10.07;;;;;;;24.65;57.10;96169.03;6215619;23;20498;-80
2021/07/24 13:21:27;;;;;;;11.90;9.20;;;;;;;24.64;56.88;96163.97;6217199;23;20027;-79
2021/07/24 13:23:58;;;;;;;16.02;9.25;;;;;;;24.61;57.31;96157.31;6216325;23;20024;-80
2021/07/24 13:29:17;;;;;;;14.82;8.88;;;;;;;24.62;57.08;96161.59;6221390;23;20023;-81
2021/07/24 13:31:47;;;;;;;12.18;8.57;;;;;;;24.67;56.51;96169.53;6197588;23;20075;-81
2021/07/24 13:34:14;;;;;;;11.93;8.43;;;;;;;24.72;56.59;96166.00;6222298;23;20404;-72
2021/07/24 13:36:42;;;;;;;13.13;7.65;;;;;;;24.77;56.65;96155.28;6215815;23;20329;-73
2021/07/24 13:39:11;;;;;;;9.55;7.35;;;;;;;24.83;56.21;96148.81;6215559;23;20044;-72
2021/07/24 13:41:38;;;;;;;10.10;7.55;;;;;;;24.88;55.50;96143.44;6215653;23;20400;-73
2021/07/24 13:44:06;;;;;;;11.63;7.88;;;;;;;24.93;55.20;96150.59;6215567;23;20032;-72
2021/07/24 13:46:33;;;;;;;10.18;7.72;;;;;;;24.98;55.20;96141.72;6215805;23;20031;-74
2021/07/24 13:49:01;;;;;;;9.50;7.95;;;;;;;25.04;55.93;96136.03;6215821;23;20029;-73
2021/07/24 13:51:29;;;;;;;10.20;8.43;;;;;;;25.08;56.44;96131.72;6216903;23;20063;-79
2021/07/24 13:54:02;;;;;;;10.52;6.97;;;;;;;25.11;56.73;96126.91;6235691;23;20751;-79
2021/07/24 13:56:42;;;;;;;7.88;6.65;;;;;;;25.11;54.75;96125.03;6229806;23;20012;-80
2021/07/24 14:05:36;;;;;;;12.23;7.20;;;;;;;25.10;55.13;96107.41;6222602;23;20094;-80
2021/07/24 17:30:25;;;;;;;13.27;8.77;;;;;;;22.93;63.73;96064.19;6201193;23;20023;-79
2021/07/24 17:32:52;;;;;;;8.93;7.22;;;;;;;22.90;63.83;96053.34;6216339;23;20023;-79
2021/07/24 17:35:20;;;;;;;13.82;8.65;;;;;;;22.83;63.89;96043.78;6216989;23;20031;-79
2021/07/24 17:37:47;;;;;;;11.65;7.63;;;;;;;22.78;64.00;96045.66;6216902;23;20027;-79
2021/07/24 17:40:16;;;;;;;10.10;7.75;;;;;;;22.74;64.01;96058.72;6216850;23;20083;-78
2021/07/24 17:42:44;;;;;;;8.15;7.18;;;;;;;22.76;64.07;96066.41;6216422;23;20029;-78
2021/07/24 17:45:12;;;;;;;10.60;7.18;;;;;;;22.75;63.46;96072.81;6216715;23;20024;-78
2021/07/24 17:47:46;;;;;;;10.05;7.65;;;;;;;22.71;63.53;96066.44;6216287;23;20020;-78
2021/07/24 17:50:14;;;;;;;11.77;7.72;;;;;;;22.68;63.16;96061.69;6216643;23;20030;-79
2021/07/24 17:52:41;;;;;;;11.82;7.72;;;;;;;22.65;63.62;96063.00;6215988;23;20024;-79
2021/07/24 17:55:09;;;;;;;11.57;7.53;;;;;;;22.61;63.20;96062.75;6216771;23;20043;-79
2021/07/24 17:57:37;;;;;;;10.60;7.30;;;;;;;22.62;63.54;96067.00;6216699;23;20054;-79
2021/07/24 18:00:05;;;;;;;9.07;7.45;;;;;;;22.59;63.00;96064.88;6216243;23;20031;-79
2021/07/24 18:02:33;;;;;;;10.13;7.07;;;;;;;22.58;63.37;96068.59;6215871;23;20016;-79
2021/07/24 18:05:02;;;;;;;9.88;6.88;;;;;;;22.60;63.06;96063.81;6216874;23;20067;-79
2021/07/24 18:07:29;;;;;;;9.23;7.20;;;;;;;22.59;62.60;96059.56;6216535;23;20020;-79
2021/07/24 18:09:57;;;;;;;11.55;7.68;;;;;;;22.60;62.84;96060.34;6216751;23;20027;-79
2021/07/24 18:12:25;;;;;;;10.73;8.02;;;;;;;22.59;63.02;96051.59;6216181;23;21995;-79
2021/07/24 18:14:52;;;;;;;13.70;6.82;;;;;;;22.58;63.15;96036.69;6216204;23;20016;-79
2021/07/24 18:17:20;;;;;;;10.73;7.32;;;;;;;22.58;62.64;96034.03;6216100;23;20468;-79
2021/07/24 18:19:47;;;;;;;9.95;7.30;;;;;;;22.56;62.33;96033.53;6215995;23;20464;-79
2021/07/24 18:22:16;;;;;;;13.00;9.30;;;;;;;22.51;62.55;96014.94;6216247;23;20032;-79
2021/07/24 18:24:44;;;;;;;9.48;6.97;;;;;;;22.48;63.05;96001.38;6216496;23;20048;-79
2021/07/24 18:27:12;;;;;;;8.95;7.25;;;;;;;22.44;62.68;96011.00;6220429;23;20337;-78
2021/07/24 18:29:39;;;;;;;11.95;7.68;;;;;;;22.42;62.80;96000.63;6215952;23;20021;-79
2021/07/24 18:32:07;;;;;;;10.77;6.78;;;;;;;22.42;62.73;95992.66;6215638;23;20017;-80
2021/07/24 18:34:35;;;;;;;9.93;7.72;;;;;;;22.38;63.07;95989.75;6216225;23;20024;-80
2021/07/24 18:37:03;;;;;;;8.88;7.30;;;;;;;22.37;63.41;95980.19;6216417;23;20464;-80
2021/07/24 18:39:32;;;;;;;11.90;8.02;;;;;;;22.36;63.65;95961.84;6219059;23;20028;-79
2021/07/24 18:41:59;;;;;;;10.07;7.75;;;;;;;22.32;63.92;95947.53;6219363;23;20017;-77
2021/07/24 18:44:30;;;;;;;11.98;7.82;;;;;;;22.27;64.06;95940.38;6217142;23;20020;-79
2021/07/24 18:46:58;;;;;;;12.05;8.80;;;;;;;22.21;64.73;95952.06;6218403;23;20033;-79
2021/07/24 18:49:26;;;;;;;12.00;8.63;;;;;;;22.14;65.52;95967.50;6216529;23;20021;-79
2021/07/24 18:51:55;;;;;;;12.10;8.85;;;;;;;22.09;66.01;95981.59;6216258;23;20535;-79
2021/07/24 18:54:25;;;;;;;13.27;8.30;;;;;;;22.07;66.27;95997.00;6217495;23;20097;-80
2021/07/24 18:56:54;;;;;;;11.95;7.93;;;;;;;22.05;66.56;96007.09;6216635;23;20024;-79
2021/07/24 18:59:23;;;;;;;13.18;9.32;;;;;;;21.99;66.17;95990.34;6215625;23;20023;-79
2021/07/24 19:01:50;;;;;;;12.10;8.52;;;;;;;21.94;65.30;96003.66;6216566;23;20044;-80
2021/07/24 19:04:18;;;;;;;10.15;7.20;;;;;;;21.94;65.94;96000.22;6217970;23;20453;-80
2021/07/24 19:06:46;;;;;;;13.85;8.38;;;;;;;21.95;65.56;96017.72;6215940;23;20027;-78
2021/07/24 19:09:13;;;;;;;10.13;7.85;;;;;;;21.94;65.34;96021.44;6217824;23;20361;-80
2021/07/24 19:11:41;;;;;;;9.43;7.85;;;;;;;21.93;65.17;96035.78;6218203;23;20021;-80
2021/07/24 19:14:10;;;;;;;12.55;8.13;;;;;;;21.91;65.31;96053.84;6217963;23;20024;-80
2021/07/24 19:16:37;;;;;;;8.95;7.07;;;;;;;21.90;65.34;96057.56;6216543;23;20468;-79
2021/07/24 19:19:05;;;;;;;9.43;7.57;;;;;;;21.91;64.48;96064.44;6216396;23;20028;-79
2021/07/24 19:21:33;;;;;;;8.82;7.45;;;;;;;21.92;64.23;96068.72;6215635;23;20032;-80
2021/07/24 19:24:00;;;;;;;13.43;8.15;;;;;;;21.92;63.86;96092.63;6216572;23;20083;-80
2021/07/24 19:26:30;;;;;;;11.23;8.18;;;;;;;21.89;64.23;96099.25;6220325;23;20107;-80
2021/07/24 19:29:03;;;;;;;11.95;7.55;;;;;;;21.90;64.50;96113.31;6225066;23;20103;-80
2021/07/24 19:31:34;;;;;;;11.07;7.40;;;;;;;21.93;64.17;96120.75;6221771;23;20017;-79
2021/07/24 19:34:02;;;;;;;54.15;40.25;;;;;;;21.95;63.70;96122.09;6215424;23;20352;-80
2021/07/24 19:36:30;;;;;;;24.13;16.70;;;;;;;21.97;63.90;96135.09;6215780;23;20021;-80
2021/07/24 19:38:57;;;;;;;14.45;10.07;;;;;;;21.97;63.93;96138.56;6216986;23;20025;-81
2021/07/24 19:47:41;;;;;;;10.40;8.32;;;;;;;22.03;62.92;96157.94;6195753;23;20043;-81
2021/07/24 19:50:10;;;;;;;10.25;7.93;;;;;;;22.05;62.57;96165.66;6217718;23;20016;-81
2021/07/24 19:52:38;;;;;;;15.10;7.78;;;;;;;22.06;62.16;96175.19;6216679;23;20068;-81
2021/07/24 19:55:06;;;;;;;12.07;7.10;;;;;;;22.08;62.58;96176.53;6217123;23;20027;-81
2021/07/24 19:57:34;;;;;;;9.02;7.00;;;;;;;22.09;62.29;96166.72;6217822;23;20025;-81
2021/07/24 20:00:03;;;;;;;9.13;6.75;;;;;;;22.09;62.16;96175.47;6220291;23;20032;-80
2021/07/24 20:02:31;;;;;;;9.05;6.63;;;;;;;22.09;62.62;96167.50;6217471;23;20021;-81
2021/07/24 20:05:01;;;;;;;8.15;6.32;;;;;;;22.09;62.51;96162.19;6225990;23;20068;-81
2021/07/24 20:07:29;;;;;;;10.07;7.18;;;;;;;22.08;62.69;96152.63;6227617;23;20090;-81
2021/07/24 20:09:58;;;;;;;8.88;6.75;;;;;;;22.07;62.99;96148.38;6237952;23;20022;-81
2021/07/24 20:12:26;;;;;;;13.02;7.32;;;;;;;22.07;62.84;96137.75;6240195;23;20039;-80
2021/07/24 20:14:54;;;;;;;9.50;7.15;;;;;;;22.04;63.38;96133.00;6238081;23;20017;-81
2021/07/24 20:17:22;;;;;;;10.50;7.50;;;;;;;22.02;63.07;96135.13;6229352;23;20024;-81
2021/07/24 20:19:50;;;;;;;11.40;7.07;;;;;;;21.99;63.23;96136.41;6223227;23;20045;-81
2021/07/24 20:22:19;;;;;;;11.32;7.45;;;;;;;21.96;63.12;96158.19;6225589;23;20028;-81
2021/07/24 20:24:48;;;;;;;9.32;6.50;;;;;;;21.97;63.39;96166.97;6228750;23;20024;-81
2021/07/24 20:27:16;;;;;;;51.53;37.30;;;;;;;22.00;63.21;96174.41;6227165;23;20048;-81
2021/07/24 20:29:44;;;;;;;16.02;10.45;;;;;;;21.99;62.79;96168.28;6227847;23;20411;-81
2021/07/24 20:32:12;;;;;;;13.73;10.32;;;;;;;22.01;63.30;96203.34;6227018;23;20044;-80
2021/07/24 20:34:41;;;;;;;11.00;6.85;;;;;;;22.04;62.93;96201.22;6226154;23;20032;-81
2021/07/24 20:37:09;;;;;;;9.15;6.82;;;;;;;22.04;63.16;96202.03;6225999;23;20032;-81
2021/07/24 20:39:38;;;;;;;9.25;6.65;;;;;;;22.05;62.92;96218.78;6222942;23;20028;-81
2021/07/24 20:42:07;;;;;;;12.15;6.57;;;;;;;22.05;63.06;96246.13;6233578;23;20020;-81
2021/07/24 20:44:35;;;;;;;8.95;6.53;;;;;;;22.04;62.50;96231.25;6231263;23;20074;-81
2021/07/24 20:47:03;;;;;;;9.07;6.88;;;;;;;22.04;62.65;96220.63;6235496;23;20028;-81
2021/07/24 20:49:32;;;;;;;8.45;6.70;;;;;;;22.02;63.45;96222.75;6237622;23;20021;-81
2021/07/24 20:52:00;;;;;;;8.55;6.95;;;;;;;21.97;63.85;96218.25;6237029;23;20021;-81
2021/07/24 20:54:28;;;;;;;8.90;6.82;;;;;;;21.94;64.21;96207.34;6234049;23;20040;-81
2021/07/24 20:56:57;;;;;;;9.35;6.97;;;;;;;21.89;64.85;96202.03;6222257;23;20399;-81
2021/07/24 20:59:25;;;;;;;11.23;7.05;;;;;;;21.84;64.59;96191.38;6227901;23;20016;-81
2021/07/24 21:01:55;;;;;;;8.05;6.88;;;;;;;21.77;64.96;96189.78;6232943;23;20024;-81
2021/07/24 21:04:24;;;;;;;10.00;6.57;;;;;;;21.71;65.40;96190.03;6237733;23;20461;-81
2021/07/24 21:06:54;;;;;;;10.90;7.22;;;;;;;21.66;65.82;96198.78;6239657;23;20004;-81
2021/07/24 21:09:22;;;;;;;7.72;6.75;;;;;;;21.66;65.39;96201.44;6237461;23;20020;-81
2021/07/24 21:11:51;;;;;;;11.63;6.50;;;;;;;21.64;65.81;96216.03;6233383;23;20016;-81
2021/07/24 21:14:20;;;;;;;9.13;6.85;;;;;;;21.60;66.64;96231.66;6227220;23;20020;-81
2021/07/24 21:16:49;;;;;;;8.60;7.32;;;;;;;21.54;66.43;96232.72;6225259;23;20031;-81
2021/07/24 21:19:17;;;;;;;7.93;5.85;;;;;;;21.54;67.13;96235.38;6232910;23;20025;-81
2021/07/24 21:21:46;;;;;;;7.38;5.30;;;;;;;21.56;67.08;96247.34;6234366;23;20025;-81
2021/07/24 21:24:14;;;;;;;9.88;6.80;;;;;;;21.59;66.82;96251.31;6233900;23;20064;-81
2021/07/24 21:26:42;;;;;;;9.25;6.43;;;;;;;21.61;66.64;96246.53;6227822;23;20021;-81
2021/07/24 21:29:10;;;;;;;8.18;5.93;;;;;;;21.58;66.61;96247.88;6231308;23;20080;-81
2021/07/24 21:31:39;;;;;;;10.07;7.03;;;;;;;21.57;66.45;96242.81;6229050;23;20100;-81
2021/07/24 21:34:08;;;;;;;10.73;7.35;;;;;;;21.50;66.54;96235.09;6221515;23;20024;-81
2021/07/24 21:36:35;;;;;;;8.73;6.65;;;;;;;21.45;66.59;96235.09;6228175;23;20444;-81
2021/07/24 21:39:04;;;;;;;11.27;7.25;;;;;;;21.43;66.47;96239.84;6229941;23;20020;-81
2021/07/24 21:41:32;;;;;;;12.15;7.32;;;;;;;21.44;66.88;96235.34;6229831;23;20025;-81
2021/07/24 21:44:00;;;;;;;9.80;7.10;;;;;;;21.44;66.31;96232.69;6228991;23;20087;-81
2021/07/24 21:46:27;;;;;;;10.32;7.07;;;;;;;21.40;66.04;96232.38;6229139;23;20020;-81
2021/07/24 21:48:57;;;;;;;8.38;6.45;;;;;;;21.35;66.61;96238.44;6229097;23;20021;-81